createdAt,value
2022-09-09T00:00:58.866Z,23.7
2022-09-09T00:02:00.821Z,23.8
2022-09-09T00:03:03.878Z,23.7
2022-09-09T00:04:06.645Z,23.7
2022-09-09T00:05:09.122Z,23.8
2022-09-09T00:06:11.584Z,23.7
2022-09-09T00:07:14.065Z,23.8
2022-09-09T00:08:16.265Z,23.8
2022-09-09T00:09:18.792Z,23.7
2022-09-09T00:10:20.722Z,23.7
2022-09-09T00:11:22.929Z,23.8
2022-09-09T00:12:29.110Z,23.8
2022-09-09T00:13:31.615Z,23.7
2022-09-09T00:14:34.088Z,23.8
2022-09-09T00:15:36.408Z,23.8
2022-09-09T00:16:38.827Z,23.8
2022-09-09T00:17:41.350Z,23.9
2022-09-09T00:18:43.856Z,23.8
2022-09-09T00:19:46.079Z,23.8
2022-09-09T00:20:48.560Z,23.8
2022-09-09T00:21:50.507Z,23.8
2022-09-09T00:22:52.184Z,23.8
2022-09-09T00:23:54.681Z,23.9
2022-09-09T00:24:57.185Z,23.8
2022-09-09T00:25:59.679Z,23.8
2022-09-09T00:27:01.859Z,23.9
2022-09-09T00:28:04.363Z,23.9
2022-09-09T00:29:06.568Z,23.8
2022-09-09T00:30:08.797Z,23.8
2022-09-09T00:31:11.080Z,23.7
2022-09-09T00:32:13.224Z,23.9
2022-09-09T00:33:15.388Z,23.7
2022-09-09T00:34:17.333Z,23.8
2022-09-09T00:35:19.236Z,23.8
2022-09-09T00:36:21.442Z,23.8
2022-09-09T00:37:23.641Z,23.8
2022-09-09T00:38:26.128Z,23.8
2022-09-09T00:39:28.069Z,23.7
2022-09-09T00:40:30.386Z,23.7
2022-09-09T00:41:32.882Z,23.7
2022-09-09T00:42:35.070Z,23.7
2022-09-09T00:43:37.009Z,23.7
2022-09-09T00:44:39.533Z,23.8
2022-09-09T00:45:42.007Z,23.7
2022-09-09T00:46:44.685Z,23.7
2022-09-09T00:47:46.883Z,23.8
2022-09-09T00:48:49.124Z,23.6
2022-09-09T00:49:51.605Z,23.8
2022-09-09T00:50:53.824Z,23.7
2022-09-09T00:51:56.299Z,23.7
2022-09-09T00:52:58.775Z,23.7
2022-09-09T00:54:01.256Z,23.7
2022-09-09T00:55:03.454Z,23.6
2022-09-09T00:56:05.672Z,23.7
2022-09-09T00:57:07.599Z,23.7
2022-09-09T00:58:10.067Z,23.7
2022-09-09T00:59:12.542Z,23.7
2022-09-09T01:00:15.033Z,23.7
2022-09-09T01:01:17.095Z,23.6
2022-09-09T01:02:19.958Z,23.7
2022-09-09T01:03:22.724Z,23.7
2022-09-09T01:04:25.215Z,23.7
2022-09-09T01:05:27.427Z,23.6
2022-09-09T01:06:29.631Z,23.7
2022-09-09T01:07:31.830Z,23.7
2022-09-09T01:08:34.229Z,23.7
2022-09-09T01:09:37.393Z,23.6
2022-09-09T01:10:39.597Z,23.7
2022-09-09T01:11:42.080Z,23.6
2022-09-09T01:12:44.587Z,23.5
2022-09-09T01:13:47.121Z,23.7
2022-09-09T01:14:49.048Z,23.6
2022-09-09T01:15:51.553Z,23.7
2022-09-09T01:16:54.218Z,23.6
2022-09-09T01:17:56.987Z,23.5
2022-09-09T01:18:59.465Z,23.7
2022-09-09T01:20:01.681Z,23.6
2022-09-09T01:21:04.206Z,23.6
2022-09-09T01:22:06.679Z,23.6
2022-09-09T01:23:08.890Z,23.6
2022-09-09T01:24:11.084Z,23.6
2022-09-09T01:25:13.566Z,23.5
2022-09-09T01:26:15.763Z,23.5
2022-09-09T01:27:17.980Z,23.7
2022-09-09T01:28:20.172Z,23.7
2022-09-09T01:29:22.659Z,23.6
2022-09-09T01:30:24.857Z,23.7
2022-09-09T01:31:27.192Z,23.7
2022-09-09T01:32:29.718Z,23.6
2022-09-09T01:33:32.225Z,23.6
2022-09-09T01:34:34.704Z,23.6
2022-09-09T01:35:37.207Z,23.6
2022-09-09T01:36:39.710Z,23.6
2022-09-09T01:37:42.188Z,23.5
2022-09-09T01:38:44.654Z,23.6
2022-09-09T01:39:46.993Z,23.5
2022-09-09T01:40:49.684Z,23.6
2022-09-09T01:41:52.159Z,23.5
2022-09-09T01:42:54.651Z,23.5
2022-09-09T01:43:56.833Z,23.5
2022-09-09T01:44:59.018Z,23.6
2022-09-09T01:46:01.747Z,23.6
2022-09-09T01:47:04.635Z,23.5
2022-09-09T01:48:07.137Z,23.6
2022-09-09T01:49:09.368Z,23.6
2022-09-09T01:50:11.278Z,23.6
2022-09-09T01:51:13.771Z,23.6
2022-09-09T01:52:16.271Z,23.6
2022-09-09T01:53:18.466Z,23.5
2022-09-09T01:54:20.655Z,23.5
2022-09-09T01:55:22.857Z,23.5
2022-09-09T01:56:25.352Z,23.6
2022-09-09T01:57:27.817Z,23.6
2022-09-09T01:58:31.044Z,23.5
2022-09-09T01:59:33.077Z,23.5
2022-09-09T02:00:35.544Z,23.5
2022-09-09T02:01:37.995Z,23.6
2022-09-09T02:02:40.968Z,23.6
2022-09-09T02:03:43.681Z,23.6
2022-09-09T02:04:45.611Z,23.6
2022-09-09T02:05:47.829Z,23.6
2022-09-09T02:06:50.328Z,23.5
2022-09-09T02:07:52.560Z,23.6
2022-09-09T02:08:54.463Z,23.6
2022-09-09T02:09:56.937Z,23.5
2022-09-09T02:10:59.407Z,23.5
2022-09-09T02:12:01.627Z,23.5
2022-09-09T02:13:03.828Z,23.5
2022-09-09T02:14:06.044Z,23.5
2022-09-09T02:15:08.531Z,23.5
2022-09-09T02:16:11.120Z,23.5
2022-09-09T02:17:13.799Z,23.5
2022-09-09T02:18:16.017Z,23.6
2022-09-09T02:19:18.481Z,23.6
2022-09-09T02:20:20.696Z,23.5
2022-09-09T02:21:22.878Z,23.5
2022-09-09T02:22:25.398Z,23.5
2022-09-09T02:23:27.697Z,23.5
2022-09-09T02:24:29.789Z,23.5
2022-09-09T02:25:31.982Z,23.5
2022-09-09T02:26:34.462Z,23.6
2022-09-09T02:27:36.984Z,23.5
2022-09-09T02:28:39.483Z,23.4
2022-09-09T02:29:41.974Z,23.6
2022-09-09T02:30:44.328Z,23.5
2022-09-09T02:31:46.853Z,23.5
2022-09-09T02:32:49.344Z,23.5
2022-09-09T02:33:51.289Z,23.6
2022-09-09T02:34:53.765Z,23.5
2022-09-09T02:35:55.952Z,23.6
2022-09-09T02:36:57.592Z,23.5
2022-09-09T02:38:00.094Z,23.5
2022-09-09T02:39:02.595Z,23.5
2022-09-09T02:40:05.060Z,23.6
2022-09-09T02:41:07.743Z,23.6
2022-09-09T02:42:09.960Z,23.5
2022-09-09T02:43:12.162Z,23.6
2022-09-09T02:44:14.630Z,23.5
2022-09-09T02:45:16.851Z,23.5
2022-09-09T02:46:19.513Z,23.5
2022-09-09T02:47:22.287Z,23.5
2022-09-09T02:48:24.497Z,23.4
2022-09-09T02:49:26.992Z,23.5
2022-09-09T02:50:29.177Z,23.5
2022-09-09T02:51:31.412Z,23.4
2022-09-09T02:52:33.919Z,23.5
2022-09-09T02:53:36.142Z,23.6
2022-09-09T02:54:38.634Z,23.4
2022-09-09T02:55:41.148Z,23.4
2022-09-09T02:56:43.364Z,23.6
2022-09-09T02:57:45.561Z,23.5
2022-09-09T02:58:47.482Z,23.5
2022-09-09T02:59:49.942Z,23.4
2022-09-09T03:00:52.594Z,23.5
2022-09-09T03:01:55.405Z,23.6
2022-09-09T03:02:58.093Z,23.4
2022-09-09T03:04:00.302Z,23.5
2022-09-09T03:05:02.787Z,23.4
2022-09-09T03:06:05.039Z,23.4
2022-09-09T03:07:07.235Z,23.4
2022-09-09T03:08:09.701Z,23.5
2022-09-09T03:09:12.213Z,23.5
2022-09-09T03:10:14.694Z,23.5
2022-09-09T03:11:17.181Z,23.4
2022-09-09T03:12:19.668Z,23.4
2022-09-09T03:13:22.163Z,23.4
2022-09-09T03:14:24.636Z,23.4
2022-09-09T03:15:27.143Z,23.4
2022-09-09T03:16:29.780Z,23.4
2022-09-09T03:17:32.481Z,23.4
2022-09-09T03:18:35.002Z,23.4
2022-09-09T03:19:38.021Z,23.5
2022-09-09T03:20:40.238Z,23.4
2022-09-09T03:21:42.419Z,23.4
2022-09-09T03:22:44.908Z,23.4
2022-09-09T03:23:47.098Z,23.4
2022-09-09T03:24:49.588Z,23.5
2022-09-09T03:25:52.091Z,23.4
2022-09-09T03:26:54.290Z,23.5
2022-09-09T03:27:56.509Z,23.4
2022-09-09T03:28:58.405Z,23.5
2022-09-09T03:30:00.922Z,23.4
2022-09-09T03:31:03.096Z,23.4
2022-09-09T03:32:05.831Z,23.5
2022-09-09T03:33:08.617Z,23.4
2022-09-09T03:34:11.092Z,23.4
2022-09-09T03:35:13.554Z,23.5
2022-09-09T03:36:15.789Z,23.5
2022-09-09T03:37:17.705Z,23.4
2022-09-09T03:38:19.942Z,23.4
2022-09-09T03:39:22.415Z,23.5
2022-09-09T03:40:24.914Z,23.4
2022-09-09T03:41:27.126Z,23.4
2022-09-09T03:42:29.329Z,23.4
2022-09-09T03:43:31.794Z,23.5
2022-09-09T03:44:34.010Z,23.4
2022-09-09T03:45:36.312Z,23.4
2022-09-09T03:46:38.697Z,23.3
2022-09-09T03:47:41.177Z,23.3
2022-09-09T03:48:43.653Z,23.5
2022-09-09T03:49:46.149Z,23.4
2022-09-09T03:50:48.341Z,23.5
2022-09-09T03:51:50.839Z,23.4
2022-09-09T03:52:53.308Z,23.4
2022-09-09T03:53:55.808Z,23.5
2022-09-09T03:54:58.285Z,23.3
2022-09-09T03:56:00.516Z,23.4
2022-09-09T03:57:03.194Z,23.5
2022-09-09T03:58:05.375Z,23.4
2022-09-09T03:59:07.852Z,23.5
2022-09-09T04:00:10.072Z,23.4
2022-09-09T04:01:12.168Z,23.4
2022-09-09T04:02:14.584Z,23.4
2022-09-09T04:03:17.343Z,23.4
2022-09-09T04:04:19.822Z,23.5
2022-09-09T04:05:22.292Z,23.5
2022-09-09T04:06:24.773Z,23.4
2022-09-09T04:07:27.282Z,23.4
2022-09-09T04:08:29.790Z,23.4
2022-09-09T04:09:32.336Z,23.4
2022-09-09T04:10:34.551Z,23.4
2022-09-09T04:11:37.062Z,23.3
2022-09-09T04:12:39.567Z,23.3
2022-09-09T04:13:41.758Z,23.4
2022-09-09T04:14:44.233Z,23.4
2022-09-09T04:15:46.703Z,23.4
2022-09-09T04:16:49.018Z,23.4
2022-09-09T04:17:51.420Z,23.4
2022-09-09T04:18:53.920Z,23.4
2022-09-09T04:19:56.437Z,23.3
2022-09-09T04:20:58.921Z,23.5
2022-09-09T04:22:01.400Z,23.4
2022-09-09T04:23:03.910Z,23.5
2022-09-09T04:24:06.124Z,23.3
2022-09-09T04:25:08.339Z,23.4
2022-09-09T04:26:10.835Z,23.4
2022-09-09T04:27:13.343Z,23.4
2022-09-09T04:28:15.837Z,23.4
2022-09-09T04:29:18.036Z,23.4
2022-09-09T04:30:20.524Z,23.4
2022-09-09T04:31:23.176Z,23.5
2022-09-09T04:32:26.155Z,23.3
2022-09-09T04:33:28.352Z,23.4
2022-09-09T04:34:30.846Z,23.3
2022-09-09T04:35:33.332Z,23.4
2022-09-09T04:36:35.799Z,23.3
2022-09-09T04:37:38.281Z,23.3
2022-09-09T04:38:40.501Z,23.4
2022-09-09T04:39:43.122Z,23.4
2022-09-09T04:40:45.933Z,23.3
2022-09-09T04:41:47.846Z,23.3
2022-09-09T04:42:50.069Z,23.2
2022-09-09T04:43:52.552Z,23.3
2022-09-09T04:44:55.031Z,23.4
2022-09-09T04:45:57.445Z,23.4
2022-09-09T04:47:00.242Z,23.4
2022-09-09T04:48:02.448Z,23.3
2022-09-09T04:49:04.624Z,23.4
2022-09-09T04:50:06.837Z,23.3
2022-09-09T04:51:09.311Z,23.4
2022-09-09T04:52:11.517Z,23.3
2022-09-09T04:53:13.988Z,23.3
2022-09-09T04:54:16.226Z,23.4
2022-09-09T04:55:18.132Z,23.4
2022-09-09T04:56:20.356Z,23.3
2022-09-09T04:57:22.264Z,23.4
2022-09-09T04:58:24.754Z,23.3
2022-09-09T04:59:27.243Z,23.3
2022-09-09T05:00:29.817Z,23.3
2022-09-09T05:01:32.532Z,23.4
2022-09-09T05:02:35.124Z,23.5
2022-09-09T05:03:37.271Z,23.2
2022-09-09T05:04:38.908Z,23.2
2022-09-09T05:05:41.132Z,23.4
2022-09-09T05:06:43.336Z,23.3
2022-09-09T05:07:45.551Z,23.4
2022-09-09T05:08:48.028Z,23.4
2022-09-09T05:09:50.239Z,23.3
2022-09-09T05:10:52.437Z,23.4
2022-09-09T05:11:54.629Z,23.4
2022-09-09T05:12:57.113Z,23.4
2022-09-09T05:13:59.325Z,23.3
2022-09-09T05:15:01.539Z,23.3
2022-09-09T05:16:03.884Z,23.4
2022-09-09T05:17:06.740Z,23.3
2022-09-09T05:18:08.933Z,23.4
2022-09-09T05:19:11.401Z,23.3
2022-09-09T05:21:18.596Z,23.4
2022-09-09T05:22:20.799Z,23.3
2022-09-09T05:23:23.267Z,23.4
2022-09-09T05:24:25.741Z,23.4
2022-09-09T05:25:27.660Z,23.4
2022-09-09T05:26:29.570Z,23.4
2022-09-09T05:27:31.278Z,23.4
2022-09-09T05:28:33.888Z,23.3
2022-09-09T05:29:36.562Z,23.4
2022-09-09T05:30:39.060Z,23.3
2022-09-09T05:31:41.626Z,23.4
2022-09-09T05:32:44.720Z,23.3
2022-09-09T05:33:47.021Z,23.3
2022-09-09T05:34:49.388Z,23.4
2022-09-09T05:35:51.596Z,23.4
2022-09-09T05:36:54.094Z,23.4
2022-09-09T05:37:56.290Z,23.4
2022-09-09T05:38:58.489Z,23.3
2022-09-09T05:40:00.870Z,23.4
2022-09-09T05:41:03.579Z,23.4
2022-09-09T05:42:05.778Z,23.3
2022-09-09T05:43:08.006Z,23.3
2022-09-09T05:44:09.935Z,23.3
2022-09-09T05:45:12.446Z,23.4
2022-09-09T05:46:14.807Z,23.4
2022-09-09T05:47:17.434Z,23.3
2022-09-09T05:48:19.933Z,23.2
2022-09-09T05:49:22.137Z,23.3
2022-09-09T05:50:24.806Z,23.4
2022-09-09T05:51:31.960Z,23.5
2022-09-09T05:52:34.205Z,23.3
2022-09-09T05:53:36.670Z,23.3
2022-09-09T05:54:38.928Z,23.4
2022-09-09T05:55:41.391Z,23.4
2022-09-09T05:56:43.896Z,23.3
2022-09-09T05:57:50.071Z,23.4
2022-09-09T05:58:52.565Z,23.3
2022-09-09T05:59:54.813Z,23.3
2022-09-09T06:00:57.058Z,23.4
2022-09-09T06:01:59.715Z,23.3
2022-09-09T06:03:02.667Z,23.3
2022-09-09T06:04:05.532Z,23.3
2022-09-09T06:05:07.720Z,23.2
2022-09-09T06:06:10.190Z,23.4
2022-09-09T06:07:12.667Z,23.3
2022-09-09T06:08:14.868Z,23.3
2022-09-09T06:09:17.354Z,23.3
2022-09-09T06:10:19.551Z,23.4
2022-09-09T06:11:21.776Z,23.4
2022-09-09T06:12:23.700Z,23.3
2022-09-09T06:13:25.371Z,23.4
2022-09-09T06:14:27.867Z,23.3
2022-09-09T06:15:30.346Z,23.4
2022-09-09T06:16:33.201Z,23.3
2022-09-09T06:17:36.140Z,23.4
2022-09-09T06:18:38.461Z,23.3
2022-09-09T06:19:40.947Z,23.3
2022-09-09T06:20:43.416Z,23.3
2022-09-09T06:21:45.895Z,23.3
2022-09-09T06:22:48.366Z,23.3
2022-09-09T06:23:50.854Z,23.3
2022-09-09T06:24:53.402Z,23.4
2022-09-09T06:25:54.787Z,23.4
2022-09-09T06:26:57.265Z,23.3
2022-09-09T06:27:59.770Z,23.3
2022-09-09T06:29:02.236Z,23.3
2022-09-09T06:30:04.467Z,23.3
2022-09-09T06:31:07.040Z,23.3
2022-09-09T06:32:09.221Z,23.3
2022-09-09T06:33:11.714Z,23.3
2022-09-09T06:34:13.617Z,23.3
2022-09-09T06:35:15.826Z,23.3
2022-09-09T06:36:18.318Z,23.3
2022-09-09T06:37:20.732Z,23.4
2022-09-09T06:38:23.209Z,23.4
2022-09-09T06:39:25.430Z,23.4
2022-09-09T06:40:27.904Z,23.4
2022-09-09T06:41:30.115Z,23.2
2022-09-09T06:42:32.583Z,23.5
2022-09-09T06:43:34.810Z,23.3
2022-09-09T06:44:37.003Z,23.4
2022-09-09T06:45:39.260Z,23.3
2022-09-09T06:46:41.409Z,23.3
2022-09-09T06:47:44.343Z,23.4
2022-09-09T06:48:46.841Z,23.3
2022-09-09T06:49:48.826Z,23.3
2022-09-09T06:50:51.031Z,23.3
2022-09-09T06:51:54.698Z,23.3
2022-09-09T06:52:57.168Z,23.4
2022-09-09T06:53:59.654Z,23.3
2022-09-09T06:55:01.861Z,23.3
2022-09-09T06:56:03.793Z,23.3
2022-09-09T06:58:11.000Z,23.3
2022-09-09T06:59:13.487Z,23.3
2022-09-09T07:00:15.430Z,23.4
2022-09-09T07:01:17.326Z,23.3
2022-09-09T07:02:20.020Z,23.3
2022-09-09T07:03:22.719Z,23.4
2022-09-09T07:04:24.659Z,23.3
2022-09-09T07:05:26.334Z,23.3
2022-09-09T07:06:28.259Z,23.3
2022-09-09T07:07:29.913Z,23.4
2022-09-09T07:08:32.414Z,23.4
2022-09-09T07:09:35.141Z,23.3
2022-09-09T07:10:37.638Z,23.3
2022-09-09T07:11:40.120Z,23.3
2022-09-09T07:12:42.334Z,23.3
2022-09-09T07:13:44.817Z,23.4
2022-09-09T07:14:47.048Z,23.3
2022-09-09T07:15:49.608Z,23.4
2022-09-09T07:16:57.576Z,23.3
2022-09-09T07:17:59.705Z,23.3
2022-09-09T07:19:02.245Z,23.4
2022-09-09T07:20:04.727Z,23.3
2022-09-09T07:21:06.625Z,23.3
2022-09-09T07:22:08.824Z,23.4
2022-09-09T07:23:11.318Z,23.3
2022-09-09T07:24:14.309Z,23.2
2022-09-09T07:25:16.542Z,23.3
2022-09-09T07:26:19.076Z,23.3
2022-09-09T07:27:21.017Z,23.3
2022-09-09T07:28:23.259Z,23.3
2022-09-09T07:29:25.735Z,23.3
2022-09-09T07:30:28.593Z,23.3
2022-09-09T07:31:31.266Z,23.3
2022-09-09T07:32:34.201Z,23.3
2022-09-09T07:33:36.841Z,23.2
2022-09-09T07:34:39.528Z,23.3
2022-09-09T07:35:42.020Z,23.3
2022-09-09T07:36:43.943Z,23.3
2022-09-09T07:38:51.138Z,23.3
2022-09-09T07:39:53.733Z,23.3
2022-09-09T07:40:56.516Z,23.4
2022-09-09T07:41:59.062Z,23.4
2022-09-09T07:43:01.272Z,23.2
2022-09-09T07:44:03.201Z,23.2
2022-09-09T07:45:05.407Z,23.3
2022-09-09T07:46:08.026Z,23.2
2022-09-09T07:47:10.471Z,23.2
2022-09-09T07:48:12.966Z,23.4
2022-09-09T07:49:15.165Z,23.3
2022-09-09T07:50:17.417Z,23.4
2022-09-09T07:51:19.889Z,23.3
2022-09-09T07:52:22.484Z,23.2
2022-09-09T07:53:24.982Z,23.2
2022-09-09T07:54:27.207Z,23.2
2022-09-09T07:55:29.692Z,23.2
2022-09-09T07:56:34.142Z,23.2
2022-09-09T07:57:51.128Z,23.3
2022-09-09T07:58:53.631Z,23.2
2022-09-09T07:59:56.126Z,23.2
2022-09-09T08:00:58.593Z,23.3
2022-09-09T08:02:01.198Z,23.2
2022-09-09T08:03:03.824Z,23.3
2022-09-09T08:04:06.197Z,23.2
2022-09-09T08:05:08.672Z,23.3
2022-09-09T08:06:11.172Z,23.3
2022-09-09T08:07:13.381Z,23.3
2022-09-09T08:08:15.585Z,23.2
2022-09-09T08:09:17.786Z,23.3
2022-09-09T08:10:20.052Z,23.2
2022-09-09T08:11:22.299Z,23.2
2022-09-09T08:12:24.778Z,23.3
2022-09-09T08:13:27.270Z,23.3
2022-09-09T08:14:29.615Z,23.3
2022-09-09T08:15:32.090Z,23.2
2022-09-09T08:16:34.581Z,23.3
2022-09-09T08:17:36.806Z,23.3
2022-09-09T08:18:39.014Z,23.3
2022-09-09T08:19:41.504Z,23.3
2022-09-09T08:20:43.703Z,23.3
2022-09-09T08:21:45.944Z,23.2
2022-09-09T08:22:47.931Z,23.2
2022-09-09T08:24:55.410Z,23.3
2022-09-09T08:25:57.609Z,23.3
2022-09-09T08:27:00.089Z,23.2
2022-09-09T08:28:02.793Z,23.2
2022-09-09T08:29:04.986Z,23.3
2022-09-09T08:30:07.511Z,23.3
2022-09-09T08:31:10.189Z,23.2
2022-09-09T08:32:13.213Z,23.3
2022-09-09T08:33:15.716Z,23.2
2022-09-09T08:34:18.217Z,23.2
2022-09-09T08:35:20.460Z,23.2
2022-09-09T08:36:22.694Z,23.1
2022-09-09T08:37:25.214Z,23.3
2022-09-09T08:38:27.488Z,23.3
2022-09-09T08:39:29.960Z,23.2
2022-09-09T08:40:32.603Z,23.2
2022-09-09T08:41:34.818Z,23.2
2022-09-09T08:42:37.302Z,23.3
2022-09-09T08:43:39.231Z,23.3
2022-09-09T08:45:46.448Z,23.2
2022-09-09T08:46:48.577Z,23.2
2022-09-09T08:47:51.412Z,23.3
2022-09-09T08:48:53.621Z,23.3
2022-09-09T08:49:55.834Z,23.3
2022-09-09T08:50:58.384Z,23.2
2022-09-09T08:52:00.855Z,23.2
2022-09-09T08:53:03.412Z,23.3
2022-09-09T08:54:05.931Z,23.2
2022-09-09T08:55:08.433Z,23.2
2022-09-09T08:56:10.674Z,23.2
2022-09-09T08:57:13.215Z,23.3
2022-09-09T08:58:15.422Z,23.3
2022-09-09T08:59:17.906Z,23.2
2022-09-09T09:00:20.093Z,23.3
2022-09-09T09:01:22.781Z,23.3
2022-09-09T09:02:24.964Z,23.3
2022-09-09T09:03:27.661Z,23.3
2022-09-09T09:04:30.032Z,23.2
2022-09-09T09:05:32.856Z,23.3
2022-09-09T09:06:35.170Z,23.2
2022-09-09T09:07:37.086Z,23.2
2022-09-09T09:08:39.603Z,23.3
2022-09-09T09:09:42.123Z,23.3
2022-09-09T09:10:44.426Z,23.2
2022-09-09T09:11:46.639Z,23.2
2022-09-09T09:12:48.820Z,23.3
2022-09-09T09:13:51.050Z,23.2
2022-09-09T09:14:53.549Z,23.2
2022-09-09T09:15:55.523Z,23.2
2022-09-09T09:16:57.644Z,23.2
2022-09-09T09:17:59.865Z,23.3
2022-09-09T09:19:01.767Z,23.3
2022-09-09T09:20:04.300Z,23.3
2022-09-09T09:21:06.227Z,23.2
2022-09-09T09:22:08.460Z,23.3
2022-09-09T09:23:10.945Z,23.3
2022-09-09T09:24:13.168Z,23.2
2022-09-09T09:25:19.357Z,23.1
2022-09-09T09:26:21.935Z,23.2
2022-09-09T09:27:24.190Z,23.3
2022-09-09T09:28:26.377Z,23.3
2022-09-09T09:29:28.889Z,23.2
2022-09-09T09:30:31.501Z,23.2
2022-09-09T09:31:33.886Z,23.3
2022-09-09T09:32:36.204Z,23.3
2022-09-09T09:33:38.808Z,23.3
2022-09-09T09:34:40.769Z,23.3
2022-09-09T09:35:45.022Z,23.2
2022-09-09T09:36:47.542Z,23.3
2022-09-09T09:41:05.024Z,23.2
2022-09-09T09:42:07.547Z,23.3
2022-09-09T09:43:09.781Z,23.3
2022-09-09T09:44:12.263Z,23.2
2022-09-09T09:45:14.196Z,23.2
2022-09-09T09:46:18.834Z,23.3
2022-09-09T09:47:22.083Z,23.3
2022-09-09T09:48:24.592Z,23.2
2022-09-09T09:49:26.765Z,23.3
2022-09-09T09:50:28.977Z,23.3
2022-09-09T09:51:30.660Z,23.3
2022-09-09T09:52:33.169Z,23.2
2022-09-09T09:53:35.435Z,23.3
2022-09-09T09:54:37.273Z,23.3
2022-09-09T09:55:39.793Z,23.3
2022-09-09T09:56:42.403Z,23.2
2022-09-09T09:57:45.055Z,23.3
2022-09-09T09:58:47.061Z,23.2
2022-09-09T09:59:49.531Z,23.2
2022-09-09T10:00:51.216Z,23.2
2022-09-09T10:01:53.580Z,23.2
2022-09-09T10:02:55.817Z,23.2
2022-09-09T10:03:58.356Z,23.2
2022-09-09T10:05:01.006Z,23.3
2022-09-09T10:06:03.550Z,23.2
2022-09-09T10:07:05.761Z,23.3
2022-09-09T10:08:07.689Z,23.3
2022-09-09T10:09:09.916Z,23.3
2022-09-09T10:10:12.602Z,23.2
2022-09-09T10:11:14.840Z,23.2
2022-09-09T10:12:17.135Z,23.3
2022-09-09T10:13:19.431Z,23.3
2022-09-09T10:14:21.911Z,23.2
2022-09-09T10:15:24.113Z,23.3
2022-09-09T10:16:26.617Z,23.2
2022-09-09T10:17:28.848Z,23.3
2022-09-09T10:18:31.049Z,23.2
2022-09-09T10:19:33.714Z,23.3
2022-09-09T10:20:35.918Z,23.2
2022-09-09T10:21:38.400Z,23.3
2022-09-09T10:22:40.932Z,23.2
2022-09-09T10:23:43.139Z,23.2
2022-09-09T10:24:45.700Z,23.3
2022-09-09T10:25:48.228Z,23.2
2022-09-09T10:26:50.700Z,23.3
2022-09-09T10:28:58.206Z,23.3
2022-09-09T10:30:00.561Z,23.2
2022-09-09T10:31:03.191Z,23.2
2022-09-09T10:32:05.905Z,23.2
2022-09-09T10:33:07.875Z,23.3
2022-09-09T10:34:10.876Z,23.2
2022-09-09T10:35:13.109Z,23.3
2022-09-09T10:36:15.316Z,23.2
2022-09-09T10:37:17.796Z,23.2
2022-09-09T10:38:20.042Z,23.2
2022-09-09T10:39:22.236Z,23.2
2022-09-09T10:40:24.904Z,23.2
2022-09-09T10:41:27.144Z,23.2
2022-09-09T10:42:29.623Z,23.2
2022-09-09T10:43:31.817Z,23.3
2022-09-09T10:44:34.592Z,23.3
2022-09-09T10:45:37.076Z,23.3
2022-09-09T10:46:38.828Z,23.2
2022-09-09T10:47:41.071Z,23.3
2022-09-09T10:48:43.262Z,23.3
2022-09-09T10:49:45.447Z,23.3
2022-09-09T10:51:52.921Z,23.3
2022-09-09T10:52:55.154Z,23.2
2022-09-09T10:53:57.652Z,23.3
2022-09-09T10:54:59.587Z,23.2
2022-09-09T10:56:02.087Z,23.2
2022-09-09T10:57:04.015Z,23.2
2022-09-09T10:58:06.221Z,23.2
2022-09-09T10:59:08.701Z,23.3
2022-09-09T11:00:11.205Z,23.2
2022-09-09T11:01:13.523Z,23.2
2022-09-09T11:02:15.927Z,23.2
2022-09-09T11:03:17.850Z,23.3
2022-09-09T11:04:20.440Z,23.3
2022-09-09T11:05:22.792Z,23.2
2022-09-09T11:06:25.380Z,23.2
2022-09-09T11:07:28.097Z,23.3
2022-09-09T11:08:30.583Z,23.3
2022-09-09T11:09:33.105Z,23.3
2022-09-09T11:10:35.028Z,23.3
2022-09-09T11:11:37.537Z,23.3
2022-09-09T11:12:39.464Z,23.2
2022-09-09T11:13:41.952Z,23.3
2022-09-09T11:14:44.436Z,23.3
2022-09-09T11:15:46.935Z,23.2
2022-09-09T11:16:49.619Z,23.2
2022-09-09T11:17:52.061Z,23.2
2022-09-09T11:18:54.258Z,23.3
2022-09-09T11:19:56.743Z,23.2
2022-09-09T11:20:58.957Z,23.2
2022-09-09T11:22:01.166Z,23.2
2022-09-09T11:23:03.362Z,23.3
2022-09-09T11:24:05.921Z,23.2
2022-09-09T11:25:08.414Z,23.2
2022-09-09T11:26:10.843Z,23.3
2022-09-09T11:27:13.429Z,23.3
2022-09-09T11:28:15.996Z,23.2
2022-09-09T11:29:18.779Z,23.2
2022-09-09T11:31:26.245Z,23.2
2022-09-09T11:32:28.906Z,23.3
2022-09-09T11:33:31.373Z,23.2
2022-09-09T11:35:38.004Z,23.3
2022-09-09T11:36:41.121Z,23.2
2022-09-09T11:37:43.631Z,23.2
2022-09-09T11:38:46.123Z,23.2
2022-09-09T11:39:48.385Z,23.3
2022-09-09T11:40:51.134Z,23.2
2022-09-09T11:41:53.040Z,23.3
2022-09-09T11:42:54.992Z,23.2
2022-09-09T11:43:57.492Z,23.3
2022-09-09T11:44:59.714Z,23.3
2022-09-09T11:46:02.323Z,23.2
2022-09-09T11:47:04.929Z,23.2
2022-09-09T11:48:07.604Z,23.3
2022-09-09T11:49:09.794Z,23.2
2022-09-09T11:50:12.000Z,23.3
2022-09-09T11:52:19.466Z,23.3
2022-09-09T11:53:21.970Z,23.2
2022-09-09T11:54:24.443Z,23.3
2022-09-09T11:55:26.938Z,23.2
2022-09-09T11:56:29.450Z,23.3
2022-09-09T11:57:31.655Z,23.2
2022-09-09T11:58:48.320Z,23.3
2022-09-09T11:59:52.108Z,23.2
2022-09-09T12:00:54.334Z,23.2
2022-09-09T12:01:56.672Z,23.2
2022-09-09T12:02:59.825Z,23.2
2022-09-09T12:04:02.409Z,23.2
2022-09-09T12:05:04.911Z,23.2
2022-09-09T12:06:07.552Z,23.2
2022-09-09T12:07:10.134Z,23.2
2022-09-09T12:08:12.359Z,23.2
2022-09-09T12:09:14.869Z,23.2
2022-09-09T12:10:17.360Z,23.2
2022-09-09T12:11:19.296Z,23.3
2022-09-09T12:12:21.234Z,23.3
2022-09-09T12:13:23.474Z,23.1
2022-09-09T12:14:25.960Z,23.2
2022-09-09T12:15:28.452Z,23.3
2022-09-09T12:16:30.759Z,23.1
2022-09-09T12:17:33.556Z,23.3
2022-09-09T12:18:35.913Z,23.2
2022-09-09T12:19:38.318Z,23.2
2022-09-09T12:20:40.496Z,23.2
2022-09-09T12:21:42.438Z,23.2
2022-09-09T12:22:44.665Z,23.2
2022-09-09T12:23:47.156Z,23.2
2022-09-09T12:24:49.124Z,23.1
2022-09-09T12:25:51.068Z,23.3
2022-09-09T12:26:53.276Z,23.3
2022-09-09T12:27:55.231Z,23.2
2022-09-09T12:28:57.754Z,23.3
2022-09-09T12:30:00.281Z,23.2
2022-09-09T12:31:03.030Z,23.2
2022-09-09T12:32:05.940Z,23.2
2022-09-09T12:33:08.151Z,23.2
2022-09-09T12:34:11.003Z,23.2
2022-09-09T12:35:13.266Z,23.2
2022-09-09T12:36:15.749Z,23.3
2022-09-09T12:37:17.965Z,23.3
2022-09-09T12:38:21.428Z,23.2
2022-09-09T12:39:25.241Z,23.2
2022-09-09T12:40:27.574Z,23.2
2022-09-09T12:41:29.783Z,23.1
2022-09-09T12:42:31.995Z,23.2
2022-09-09T12:43:39.154Z,23.2
2022-09-09T12:44:41.638Z,23.2
2022-09-09T12:45:43.918Z,23.2
2022-09-09T12:46:46.380Z,23.2
2022-09-09T12:47:49.809Z,23.3
2022-09-09T12:48:52.018Z,23.3
2022-09-09T12:49:54.251Z,23.1
2022-09-09T12:50:56.789Z,23.4
2022-09-09T12:51:58.727Z,23.3
2022-09-09T12:53:01.217Z,23.2
2022-09-09T12:54:03.418Z,23.2
2022-09-09T12:55:05.624Z,23.3
2022-09-09T12:56:07.852Z,23.3
2022-09-09T12:57:10.376Z,23.2
2022-09-09T12:58:12.306Z,23.2
2022-09-09T12:59:14.527Z,23.2
2022-09-09T13:00:17.344Z,23.1
2022-09-09T13:01:20.130Z,23.2
2022-09-09T13:02:23.994Z,23.4
2022-09-09T13:03:26.583Z,23.2
2022-09-09T13:04:28.494Z,23.1
2022-09-09T13:05:30.741Z,23.2
2022-09-09T13:06:33.262Z,23.2
2022-09-09T13:07:35.183Z,23.1
2022-09-09T13:08:37.561Z,23.2
2022-09-09T13:09:39.903Z,23.3
2022-09-09T13:11:47.401Z,23.3
2022-09-09T13:12:49.877Z,23.3
2022-09-09T13:13:52.359Z,23.3
2022-09-09T13:14:54.301Z,23.2
2022-09-09T13:15:56.496Z,23.2
2022-09-09T13:16:59.172Z,23.2
2022-09-09T13:18:01.938Z,23.3
2022-09-09T13:19:04.147Z,23.2
2022-09-09T13:20:06.346Z,23.2
2022-09-09T13:21:08.303Z,23.3
2022-09-09T13:22:10.796Z,23.2
2022-09-09T13:23:13.060Z,23.2
2022-09-09T13:24:15.245Z,23.2
2022-09-09T13:25:17.437Z,23.3
2022-09-09T13:26:19.619Z,23.3
2022-09-09T13:27:21.827Z,23.3
2022-09-09T13:28:24.021Z,23.3
2022-09-09T13:29:25.935Z,23.2
2022-09-09T13:30:28.179Z,23.3
2022-09-09T13:31:30.874Z,23.2
2022-09-09T13:32:33.375Z,23.3
2022-09-09T13:33:35.974Z,23.3
2022-09-09T13:34:39.030Z,23.2
2022-09-09T13:35:41.506Z,23.3
2022-09-09T13:36:44.015Z,23.2
2022-09-09T13:37:46.592Z,23.2
2022-09-09T13:38:49.118Z,23.2
2022-09-09T13:39:51.382Z,23.1
2022-09-09T13:40:53.688Z,23.3
2022-09-09T13:41:56.168Z,23.2
2022-09-09T13:42:58.394Z,23.3
2022-09-09T13:44:00.583Z,23.3
2022-09-09T13:45:03.057Z,23.2
2022-09-09T13:46:05.347Z,23.3
2022-09-09T13:48:13.054Z,23.3
2022-09-09T13:49:15.550Z,23.3
2022-09-09T13:50:18.022Z,23.3
2022-09-09T13:51:20.500Z,23.3
2022-09-09T13:52:23.003Z,23.1
2022-09-09T13:53:25.258Z,23.2
2022-09-09T13:54:27.725Z,23.2
2022-09-09T13:55:30.205Z,23.2
2022-09-09T13:56:32.697Z,23.2
2022-09-09T13:57:35.185Z,23.3
2022-09-09T13:58:37.666Z,23.2
2022-09-09T14:00:45.314Z,23.2
2022-09-09T14:01:47.859Z,23.3
2022-09-09T14:02:49.780Z,23.3
2022-09-09T14:03:51.987Z,23.3
2022-09-09T14:04:54.204Z,23.3
2022-09-09T14:05:56.678Z,23.2
2022-09-09T14:06:59.151Z,23.3
2022-09-09T14:08:01.388Z,23.2
2022-09-09T14:09:03.600Z,23.3